Aeroporto :
LOGIN :

Iscrizione | Disclaimer

   EN    FR    IT 

 










Sommario :    VFR   VFR Marginale   IFR   IFR Intensivo   IFR Molto Intensivo
Visibilità : 
Base nubi : 
>= 8 km
>= 3000ft
5 / 8 km
1000 / 3000 ft
1500m / 5 km
500 / 1000 ft
800 / 1500m
200 / 500 ft
< 800m
< 200 ft
Simboli :   Temporali  Nebbia  Neve Forte  Precipitazioni Forti  Vento > 20 kt
SIGMETs :   Varie  Temporali  Ghiacco  Turbolenza  Onda orograficha  Ceneri Vulcaniche






- Altitudine del aeroporto : 400 ft
- Codice IATA : BNX


LQBK - Banja Luka

ULTIMO METAR :
  • 091000Z VRB02KT 9999 FEW033 30/21 Q1017 NOSIG

METARs OBSOLETI :
  • 090930Z VRB02KT 9999 FEW030 29/22 Q1017 NOSIG
  • 090900Z VRB02KT 9999 FEW027 28/21 Q1017 NOSIG
  • 090830Z VRB02KT CAVOK 28/21 Q1017 NOSIG
  • 090800Z VRB02KT CAVOK 28/22 Q1017 NOSIG

TAF TAF LQBK
Valido dal 09 a 06 ore il 10 a 06 ore UTC


090500Z 0906/1006 15004KT CAVOK TX29/0912Z TN19/1004Z
PROB30
TEMPO 0910/0917 VRB15KT 4000 TSRA FEW030CB BKN040
PROB30
TEMPO 1002/1006 2000 BCFG BKN002



MetMap, La meteo Aeronautica in un colpo d'occhio ! - Copyright ORBIFLY Dicembre 2007 - Disclaimer

ORBIFLY MET'MAP TEAM :

Programmazione e sviluppo : Alexandra Zaïnal
Concezione : Baudouin d'Aumeries
Aiuto per la programmazione : Marc-Olivier Méhu
Supporto tecnico e logistico : Manuel Goepfert
Aiuto per la traduzione : Arnaldo La Scala

Contatto : metmap@orbifly.com




FONTI E CREDITI :

   NOAA